EWG98F EDDK-LKPR
Flight info
| Callsign | EWG98F |
|---|---|
| Flight time | 0h 56m |
| Altitude | 35000 |
| Route | KUMIK2Q KUMIK L603 TESGA DCT ESATI DCT OSBIT DCT KOMIB DCT TONSU Z35 ODOMO DCT LOMKI |
| Aircraft | A20N/M-SDE2E3FGHIRWXY/LB1 |
Departure
| Time | 2026-05-07 19:41 |
|---|---|
| Airport | Cologne Bonn Airport (EDDK) |
Arrival
| Time | 2026-05-07 20:37 |
|---|---|
| Airport | Václav Havel Airport Prague (LKPR) |
| Time | Latitude | Longitude | Altitude | Speed | Heading |
|---|---|---|---|---|---|
| 2026-05-07 19:21 | 50.87910 | 7.12485 | 232 ft | 0 kts | 288° |
| 2026-05-07 19:34 | 50.87906 | 7.12504 | 236 ft | 3 kts | 288° |
| 2026-05-07 19:35 | 50.87899 | 7.12536 | 234 ft | 3 kts | 288° |
| 2026-05-07 19:35 | 50.87893 | 7.12564 | 234 ft | 3 kts | 297° |
| 2026-05-07 19:35 | 50.87881 | 7.12589 | 236 ft | 3 kts | 333° |
| 2026-05-07 19:35 | 50.87862 | 7.12596 | 233 ft | 3 kts | 9° |
| 2026-05-07 19:36 | 50.87848 | 7.12592 | 234 ft | 3 kts | 18° |
| 2026-05-07 19:36 | 50.87839 | 7.12586 | 232 ft | 1 kts | 18° |
| 2026-05-07 19:39 | 50.87853 | 7.12594 | 233 ft | 9 kts | 18° |
| 2026-05-07 19:39 | 50.87958 | 7.12675 | 232 ft | 21 kts | 47° |
| 2026-05-07 19:40 | 50.88012 | 7.12880 | 238 ft | 21 kts | 88° |
| 2026-05-07 19:40 | 50.87936 | 7.13074 | 238 ft | 33 kts | 141° |
| 2026-05-07 19:40 | 50.87550 | 7.13627 | 239 ft | 111 kts | 138° |
| 2026-05-07 19:40 | 50.86834 | 7.14645 | 365 ft | 155 kts | 137° |
| 2026-05-07 19:41 | 50.86008 | 7.15819 | 932 ft | 166 kts | 136° |
| 2026-05-07 19:41 | 50.85122 | 7.17107 | 1669 ft | 184 kts | 135° |
| 2026-05-07 19:41 | 50.84137 | 7.18575 | 2526 ft | 202 kts | 135° |
| 2026-05-07 19:41 | 50.83092 | 7.20169 | 3457 ft | 213 kts | 136° |
| 2026-05-07 19:42 | 50.82049 | 7.21887 | 4534 ft | 218 kts | 123° |
| 2026-05-07 19:42 | 50.81475 | 7.24083 | 5756 ft | 219 kts | 99° |
| 2026-05-07 19:42 | 50.81241 | 7.26548 | 6700 ft | 238 kts | 97° |
| 2026-05-07 19:42 | 50.81010 | 7.29231 | 7452 ft | 261 kts | 97° |
| 2026-05-07 19:43 | 50.80765 | 7.32140 | 8250 ft | 280 kts | 97° |
| 2026-05-07 19:43 | 50.80497 | 7.35281 | 9423 ft | 286 kts | 97° |
| 2026-05-07 19:43 | 50.80223 | 7.38449 | 10521 ft | 296 kts | 97° |
| 2026-05-07 19:43 | 50.79932 | 7.41781 | 11131 ft | 320 kts | 98° |
| 2026-05-07 19:44 | 50.79612 | 7.45411 | 11687 ft | 342 kts | 98° |
| 2026-05-07 19:44 | 50.79277 | 7.49197 | 12611 ft | 350 kts | 98° |
| 2026-05-07 19:44 | 50.78935 | 7.53053 | 13636 ft | 357 kts | 98° |
| 2026-05-07 19:44 | 50.78623 | 7.56941 | 14566 ft | 363 kts | 94° |
| 2026-05-07 19:45 | 50.78614 | 7.60954 | 15509 ft | 368 kts | 86° |
| 2026-05-07 19:45 | 50.78972 | 7.64977 | 16433 ft | 373 kts | 79° |
| 2026-05-07 19:45 | 50.79444 | 7.69046 | 17328 ft | 378 kts | 79° |
| 2026-05-07 19:45 | 50.79902 | 7.73088 | 18220 ft | 384 kts | 79° |
| 2026-05-07 19:46 | 50.80380 | 7.77358 | 19024 ft | 389 kts | 80° |
| 2026-05-07 19:46 | 50.80850 | 7.81592 | 19801 ft | 394 kts | 80° |
| 2026-05-07 19:46 | 50.81324 | 7.85882 | 20558 ft | 399 kts | 80° |
| 2026-05-07 19:46 | 50.81801 | 7.90223 | 21319 ft | 404 kts | 80° |
| 2026-05-07 19:47 | 50.82286 | 7.94639 | 22083 ft | 408 kts | 80° |
| 2026-05-07 19:47 | 50.82773 | 7.99091 | 22834 ft | 413 kts | 80° |
| 2026-05-07 19:47 | 50.83123 | 8.03629 | 23558 ft | 418 kts | 90° |
| 2026-05-07 19:47 | 50.82768 | 8.08203 | 24198 ft | 420 kts | 106° |
| 2026-05-07 19:48 | 50.81690 | 8.12442 | 24823 ft | 422 kts | 121° |
| 2026-05-07 19:48 | 50.80106 | 8.16364 | 25441 ft | 425 kts | 126° |
| 2026-05-07 19:48 | 50.78409 | 8.20195 | 26030 ft | 429 kts | 126° |
| 2026-05-07 19:48 | 50.76678 | 8.24082 | 26633 ft | 432 kts | 126° |
| 2026-05-07 19:49 | 50.74963 | 8.28002 | 27203 ft | 436 kts | 125° |
| 2026-05-07 19:49 | 50.73249 | 8.31980 | 27772 ft | 440 kts | 125° |
| 2026-05-07 19:49 | 50.71507 | 8.35997 | 28300 ft | 443 kts | 128° |
| 2026-05-07 19:49 | 50.69472 | 8.39643 | 28829 ft | 445 kts | 137° |
| 2026-05-07 19:50 | 50.67066 | 8.42720 | 29318 ft | 448 kts | 147° |
| 2026-05-07 19:50 | 50.64352 | 8.45187 | 29797 ft | 450 kts | 153° |
| 2026-05-07 19:50 | 50.61567 | 8.47517 | 30245 ft | 454 kts | 153° |
| 2026-05-07 19:50 | 50.58804 | 8.49838 | 30654 ft | 457 kts | 153° |
| 2026-05-07 19:51 | 50.56009 | 8.52189 | 31074 ft | 461 kts | 153° |
| 2026-05-07 19:51 | 50.53164 | 8.54584 | 31551 ft | 462 kts | 153° |
| 2026-05-07 19:51 | 50.50324 | 8.56973 | 32080 ft | 462 kts | 153° |
| 2026-05-07 19:51 | 50.47493 | 8.59355 | 32640 ft | 461 kts | 152° |
| 2026-05-07 19:52 | 50.44771 | 8.62030 | 33178 ft | 462 kts | 146° |
| 2026-05-07 19:52 | 50.42259 | 8.65187 | 33683 ft | 462 kts | 139° |
| 2026-05-07 19:52 | 50.39940 | 8.68679 | 34175 ft | 462 kts | 137° |
| 2026-05-07 19:52 | 50.37642 | 8.72179 | 34573 ft | 462 kts | 137° |
| 2026-05-07 19:53 | 50.35320 | 8.75700 | 34930 ft | 463 kts | 137° |
| 2026-05-07 19:53 | 50.33010 | 8.79186 | 35049 ft | 461 kts | 137° |
| 2026-05-07 19:53 | 50.28379 | 8.86140 | 35072 ft | 461 kts | 137° |
| 2026-05-07 19:54 | 50.23779 | 8.93021 | 35071 ft | 461 kts | 137° |
| 2026-05-07 19:54 | 50.19135 | 8.99949 | 35068 ft | 461 kts | 137° |
| 2026-05-07 19:55 | 50.14486 | 9.06867 | 35069 ft | 461 kts | 137° |
| 2026-05-07 19:55 | 50.09955 | 9.13928 | 35065 ft | 462 kts | 129° |
| 2026-05-07 19:56 | 50.08211 | 9.18145 | 35060 ft | 464 kts | 117° |
| 2026-05-07 19:56 | 50.07038 | 9.22823 | 35059 ft | 464 kts | 105° |
| 2026-05-07 19:56 | 50.06479 | 9.27759 | 35060 ft | 464 kts | 94° |
| 2026-05-07 19:56 | 50.06475 | 9.32781 | 35062 ft | 464 kts | 88° |
| 2026-05-07 19:57 | 50.06630 | 9.42843 | 35064 ft | 465 kts | 88° |
| 2026-05-07 19:57 | 50.06755 | 9.52859 | 35065 ft | 465 kts | 89° |
| 2026-05-07 19:58 | 50.06867 | 9.62939 | 35068 ft | 466 kts | 89° |
| 2026-05-07 19:58 | 50.06970 | 9.73030 | 35075 ft | 466 kts | 89° |
| 2026-05-07 19:59 | 50.07064 | 9.83122 | 35079 ft | 466 kts | 89° |
| 2026-05-07 19:59 | 50.07146 | 9.93221 | 35089 ft | 466 kts | 89° |
| 2026-05-07 20:00 | 50.07219 | 10.03319 | 35083 ft | 466 kts | 89° |
| 2026-05-07 20:00 | 50.07284 | 10.13417 | 35087 ft | 466 kts | 89° |
| 2026-05-07 20:01 | 50.07272 | 10.23524 | 35081 ft | 466 kts | 94° |
| 2026-05-07 20:01 | 50.06400 | 10.33514 | 35076 ft | 466 kts | 99° |
| 2026-05-07 20:02 | 50.05388 | 10.43389 | 35067 ft | 465 kts | 99° |
| 2026-05-07 20:02 | 50.04879 | 10.48365 | 34822 ft | 462 kts | 99° |
| 2026-05-07 20:02 | 50.04371 | 10.53288 | 34295 ft | 461 kts | 99° |
| 2026-05-07 20:03 | 50.03865 | 10.58169 | 33571 ft | 460 kts | 99° |
| 2026-05-07 20:03 | 50.03349 | 10.63115 | 32764 ft | 459 kts | 99° |
| 2026-05-07 20:03 | 50.02835 | 10.68020 | 31920 ft | 458 kts | 99° |
| 2026-05-07 20:03 | 50.02321 | 10.72902 | 31121 ft | 457 kts | 99° |
| 2026-05-07 20:04 | 50.01805 | 10.77779 | 30346 ft | 455 kts | 99° |
| 2026-05-07 20:04 | 50.01295 | 10.82588 | 29629 ft | 450 kts | 99° |
| 2026-05-07 20:04 | 50.00785 | 10.87371 | 28890 ft | 445 kts | 99° |
| 2026-05-07 20:04 | 50.00280 | 10.92098 | 28148 ft | 440 kts | 99° |
| 2026-05-07 20:05 | 49.99780 | 10.96761 | 27440 ft | 434 kts | 99° |
| 2026-05-07 20:05 | 49.99285 | 11.01356 | 27143 ft | 430 kts | 99° |
| 2026-05-07 20:05 | 49.98784 | 11.05985 | 27060 ft | 435 kts | 99° |
| 2026-05-07 20:05 | 49.98282 | 11.10607 | 26945 ft | 432 kts | 99° |
| 2026-05-07 20:06 | 49.97782 | 11.15197 | 26485 ft | 429 kts | 99° |
| 2026-05-07 20:06 | 49.97282 | 11.19763 | 25841 ft | 426 kts | 99° |
| 2026-05-07 20:06 | 49.96905 | 11.24300 | 25192 ft | 423 kts | 93° |
| 2026-05-07 20:06 | 49.96768 | 11.28857 | 24537 ft | 419 kts | 92° |
| 2026-05-07 20:07 | 49.96636 | 11.33346 | 24193 ft | 414 kts | 92° |
| 2026-05-07 20:07 | 49.96500 | 11.37797 | 24077 ft | 419 kts | 92° |
| 2026-05-07 20:07 | 49.96359 | 11.42304 | 24063 ft | 419 kts | 92° |
| 2026-05-07 20:07 | 49.96215 | 11.46825 | 24062 ft | 419 kts | 92° |
| 2026-05-07 20:08 | 49.96067 | 11.51345 | 24063 ft | 419 kts | 92° |
| 2026-05-07 20:08 | 49.95918 | 11.55877 | 24051 ft | 419 kts | 92° |
| 2026-05-07 20:08 | 49.95767 | 11.60396 | 24063 ft | 420 kts | 92° |
| 2026-05-07 20:08 | 49.95614 | 11.64929 | 24051 ft | 420 kts | 92° |
| 2026-05-07 20:09 | 49.95459 | 11.69444 | 24058 ft | 420 kts | 92° |
| 2026-05-07 20:09 | 49.95302 | 11.73967 | 24049 ft | 420 kts | 92° |
| 2026-05-07 20:09 | 49.95142 | 11.78508 | 24047 ft | 420 kts | 92° |
| 2026-05-07 20:10 | 49.94817 | 11.87598 | 24057 ft | 421 kts | 92° |
| 2026-05-07 20:10 | 49.94652 | 11.92150 | 24048 ft | 422 kts | 92° |
| 2026-05-07 20:10 | 49.94503 | 11.96692 | 24052 ft | 422 kts | 91° |
| 2026-05-07 20:10 | 49.94411 | 12.01154 | 24059 ft | 422 kts | 90° |
| 2026-05-07 20:11 | 49.94332 | 12.05751 | 24060 ft | 423 kts | 90° |
| 2026-05-07 20:11 | 49.94251 | 12.10310 | 24048 ft | 423 kts | 90° |
| 2026-05-07 20:11 | 49.94161 | 12.14874 | 24054 ft | 423 kts | 90° |
| 2026-05-07 20:11 | 49.94066 | 12.19454 | 24055 ft | 424 kts | 91° |
| 2026-05-07 20:12 | 49.93966 | 12.24030 | 24055 ft | 424 kts | 91° |
| 2026-05-07 20:12 | 49.93863 | 12.28595 | 24052 ft | 424 kts | 91° |
| 2026-05-07 20:12 | 49.93758 | 12.33179 | 24056 ft | 424 kts | 91° |
| 2026-05-07 20:12 | 49.93647 | 12.37749 | 24057 ft | 424 kts | 91° |
| 2026-05-07 20:13 | 49.93520 | 12.42331 | 24060 ft | 425 kts | 91° |
| 2026-05-07 20:13 | 49.93387 | 12.46912 | 24049 ft | 425 kts | 91° |
| 2026-05-07 20:13 | 49.93253 | 12.51480 | 24049 ft | 425 kts | 91° |
| 2026-05-07 20:13 | 49.93118 | 12.56082 | 24056 ft | 425 kts | 91° |
| 2026-05-07 20:14 | 49.92982 | 12.60665 | 24054 ft | 425 kts | 91° |
| 2026-05-07 20:14 | 49.92844 | 12.65263 | 24052 ft | 426 kts | 91° |
| 2026-05-07 20:14 | 49.92706 | 12.69838 | 24045 ft | 426 kts | 91° |
| 2026-05-07 20:14 | 49.92567 | 12.74379 | 24050 ft | 426 kts | 91° |
| 2026-05-07 20:15 | 49.92424 | 12.79032 | 24051 ft | 426 kts | 91° |
| 2026-05-07 20:15 | 49.92282 | 12.83548 | 24047 ft | 426 kts | 91° |
| 2026-05-07 20:15 | 49.92137 | 12.88151 | 24047 ft | 426 kts | 91° |
| 2026-05-07 20:15 | 49.91989 | 12.92742 | 24040 ft | 426 kts | 91° |
| 2026-05-07 20:16 | 49.91839 | 12.97338 | 24050 ft | 426 kts | 91° |
| 2026-05-07 20:16 | 49.91688 | 13.01941 | 24042 ft | 426 kts | 91° |
| 2026-05-07 20:16 | 49.91535 | 13.06540 | 24057 ft | 426 kts | 91° |
| 2026-05-07 20:16 | 49.91381 | 13.11102 | 24056 ft | 427 kts | 91° |
| 2026-05-07 20:17 | 49.91224 | 13.15731 | 24054 ft | 426 kts | 91° |
| 2026-05-07 20:17 | 49.91065 | 13.20321 | 24058 ft | 427 kts | 91° |
| 2026-05-07 20:17 | 49.90906 | 13.24900 | 24057 ft | 427 kts | 91° |
| 2026-05-07 20:17 | 49.90745 | 13.29473 | 24059 ft | 427 kts | 91° |
| 2026-05-07 20:18 | 49.90581 | 13.34065 | 24056 ft | 428 kts | 91° |
| 2026-05-07 20:18 | 49.90414 | 13.38678 | 24057 ft | 428 kts | 92° |
| 2026-05-07 20:18 | 49.90280 | 13.43314 | 24052 ft | 428 kts | 87° |
| 2026-05-07 20:18 | 49.90713 | 13.47853 | 24052 ft | 424 kts | 71° |
| 2026-05-07 20:19 | 49.91873 | 13.52024 | 24053 ft | 420 kts | 56° |
| 2026-05-07 20:19 | 49.93570 | 13.55685 | 24047 ft | 418 kts | 49° |
| 2026-05-07 20:19 | 49.95374 | 13.59207 | 23995 ft | 417 kts | 48° |
| 2026-05-07 20:19 | 49.97170 | 13.62692 | 23550 ft | 418 kts | 49° |
| 2026-05-07 20:20 | 49.98981 | 13.66254 | 22630 ft | 422 kts | 49° |
| 2026-05-07 20:20 | 50.00147 | 13.68582 | 22193 ft | 420 kts | 50° |
| 2026-05-07 20:20 | 50.02494 | 13.73324 | 21457 ft | 408 kts | 50° |
| 2026-05-07 20:20 | 50.04212 | 13.76818 | 20856 ft | 402 kts | 50° |
| 2026-05-07 20:21 | 50.05891 | 13.80262 | 20261 ft | 397 kts | 52° |
| 2026-05-07 20:21 | 50.07257 | 13.83919 | 19673 ft | 395 kts | 64° |
| 2026-05-07 20:21 | 50.08161 | 13.87939 | 19083 ft | 392 kts | 75° |
| 2026-05-07 20:21 | 50.08494 | 13.90598 | 18699 ft | 390 kts | 79° |
| 2026-05-07 20:22 | 50.09110 | 13.96127 | 17863 ft | 385 kts | 79° |
| 2026-05-07 20:22 | 50.09405 | 13.98734 | 17517 ft | 381 kts | 79° |
| 2026-05-07 20:22 | 50.09858 | 14.02719 | 16926 ft | 376 kts | 79° |
| 2026-05-07 20:22 | 50.10311 | 14.06717 | 16369 ft | 371 kts | 79° |
| 2026-05-07 20:23 | 50.10754 | 14.10645 | 15805 ft | 367 kts | 79° |
| 2026-05-07 20:23 | 50.11191 | 14.14538 | 15252 ft | 363 kts | 79° |
| 2026-05-07 20:23 | 50.11623 | 14.18400 | 14695 ft | 360 kts | 80° |
| 2026-05-07 20:23 | 50.12053 | 14.22257 | 14144 ft | 356 kts | 80° |
| 2026-05-07 20:24 | 50.12456 | 14.25888 | 13593 ft | 354 kts | 80° |
| 2026-05-07 20:24 | 50.12847 | 14.29426 | 13100 ft | 349 kts | 80° |
| 2026-05-07 20:24 | 50.13257 | 14.33140 | 12551 ft | 345 kts | 80° |
| 2026-05-07 20:24 | 50.13573 | 14.36796 | 12026 ft | 341 kts | 90° |
| 2026-05-07 20:25 | 50.13249 | 14.40141 | 11540 ft | 336 kts | 109° |
| 2026-05-07 20:25 | 50.12159 | 14.43303 | 11027 ft | 330 kts | 128° |
| 2026-05-07 20:25 | 50.10771 | 14.46139 | 10510 ft | 327 kts | 129° |
| 2026-05-07 20:25 | 50.09390 | 14.48957 | 10260 ft | 316 kts | 129° |
| 2026-05-07 20:26 | 50.08096 | 14.51609 | 10108 ft | 302 kts | 129° |
| 2026-05-07 20:26 | 50.06834 | 14.54198 | 9783 ft | 296 kts | 129° |
| 2026-05-07 20:26 | 50.05610 | 14.56708 | 9621 ft | 288 kts | 129° |
| 2026-05-07 20:26 | 50.04380 | 14.59223 | 9402 ft | 295 kts | 129° |
| 2026-05-07 20:27 | 50.03156 | 14.61727 | 9008 ft | 298 kts | 129° |
| 2026-05-07 20:27 | 50.01894 | 14.64307 | 8627 ft | 295 kts | 129° |
| 2026-05-07 20:27 | 50.00660 | 14.66830 | 8241 ft | 291 kts | 129° |
| 2026-05-07 20:27 | 49.99441 | 14.69320 | 7856 ft | 287 kts | 129° |
| 2026-05-07 20:28 | 49.98235 | 14.71779 | 7475 ft | 284 kts | 129° |
| 2026-05-07 20:28 | 49.96889 | 14.73960 | 7098 ft | 277 kts | 148° |
| 2026-05-07 20:28 | 49.95134 | 14.75001 | 6747 ft | 268 kts | 176° |
| 2026-05-07 20:28 | 49.93333 | 14.74671 | 6408 ft | 258 kts | 204° |
| 2026-05-07 20:29 | 49.91884 | 14.73206 | 6212 ft | 240 kts | 221° |
| 2026-05-07 20:29 | 49.90737 | 14.71486 | 6055 ft | 219 kts | 238° |
| 2026-05-07 20:29 | 49.90181 | 14.69396 | 5799 ft | 205 kts | 262° |
| 2026-05-07 20:29 | 49.90254 | 14.67243 | 5376 ft | 204 kts | 286° |
| 2026-05-07 20:30 | 49.90938 | 14.65325 | 5035 ft | 205 kts | 307° |
| 2026-05-07 20:30 | 49.91817 | 14.63593 | 4732 ft | 204 kts | 306° |
| 2026-05-07 20:30 | 49.92671 | 14.61866 | 4529 ft | 198 kts | 306° |
| 2026-05-07 20:30 | 49.93475 | 14.60201 | 4377 ft | 185 kts | 306° |
| 2026-05-07 20:31 | 49.94241 | 14.58625 | 4064 ft | 181 kts | 306° |
| 2026-05-07 20:31 | 49.95005 | 14.57056 | 4006 ft | 181 kts | 306° |
| 2026-05-07 20:31 | 49.95767 | 14.55492 | 4007 ft | 181 kts | 306° |
| 2026-05-07 20:31 | 49.96526 | 14.53932 | 4008 ft | 180 kts | 306° |
| 2026-05-07 20:32 | 49.97284 | 14.52379 | 4011 ft | 181 kts | 306° |
| 2026-05-07 20:32 | 49.98032 | 14.50842 | 4012 ft | 181 kts | 306° |
| 2026-05-07 20:32 | 49.98767 | 14.49332 | 4015 ft | 179 kts | 306° |
| 2026-05-07 20:32 | 49.99525 | 14.47771 | 4011 ft | 179 kts | 306° |
| 2026-05-07 20:33 | 50.00267 | 14.46247 | 4012 ft | 172 kts | 306° |
| 2026-05-07 20:33 | 50.00954 | 14.44833 | 3943 ft | 160 kts | 306° |
| 2026-05-07 20:33 | 50.01627 | 14.43451 | 3754 ft | 161 kts | 306° |
| 2026-05-07 20:33 | 50.02297 | 14.42070 | 3545 ft | 156 kts | 307° |
| 2026-05-07 20:34 | 50.02937 | 14.40755 | 3338 ft | 149 kts | 307° |
| 2026-05-07 20:34 | 50.03526 | 14.39536 | 3141 ft | 131 kts | 307° |
| 2026-05-07 20:34 | 50.04060 | 14.38441 | 2972 ft | 132 kts | 309° |
| 2026-05-07 20:34 | 50.04610 | 14.37306 | 2799 ft | 132 kts | 309° |
| 2026-05-07 20:35 | 50.05174 | 14.36148 | 2611 ft | 134 kts | 309° |
| 2026-05-07 20:35 | 50.05723 | 14.35017 | 2434 ft | 134 kts | 309° |
| 2026-05-07 20:35 | 50.06285 | 14.33857 | 2247 ft | 133 kts | 309° |
| 2026-05-07 20:35 | 50.06830 | 14.32733 | 2052 ft | 131 kts | 310° |
| 2026-05-07 20:36 | 50.07390 | 14.31581 | 1863 ft | 133 kts | 309° |
| 2026-05-07 20:36 | 50.07935 | 14.30447 | 1681 ft | 132 kts | 309° |
| 2026-05-07 20:36 | 50.08482 | 14.29307 | 1421 ft | 131 kts | 310° |
| 2026-05-07 20:36 | 50.09037 | 14.28171 | 1281 ft | 135 kts | 310° |
| 2026-05-07 20:37 | 50.09587 | 14.27055 | 1207 ft | 118 kts | 309° |
| 2026-05-07 20:37 | 50.09911 | 14.26385 | 1199 ft | 51 kts | 308° |
| 2026-05-07 20:37 | 50.10122 | 14.25945 | 1190 ft | 50 kts | 306° |
| 2026-05-07 20:37 | 50.10262 | 14.25709 | 1187 ft | 19 kts | 325° |
| 2026-05-07 20:38 | 50.10368 | 14.25659 | 1184 ft | 13 kts | 356° |
| 2026-05-07 20:38 | 50.10395 | 14.25659 | 1183 ft | 7 kts | 359° |
| 2026-05-07 20:38 | 50.10459 | 14.25671 | 1182 ft | 12 kts | 25° |
| 2026-05-07 20:38 | 50.10494 | 14.25810 | 1177 ft | 17 kts | 80° |
| 2026-05-07 20:39 | 50.10517 | 14.26025 | 1171 ft | 23 kts | 81° |
| 2026-05-07 20:39 | 50.10532 | 14.26240 | 1169 ft | 19 kts | 100° |
| 2026-05-07 20:39 | 50.10481 | 14.26369 | 1170 ft | 14 kts | 124° |
| 2026-05-07 20:39 | 50.10428 | 14.26492 | 1172 ft | 2 kts | 124° |
| 2026-05-07 20:40 | 50.10409 | 14.26535 | 1171 ft | 8 kts | 124° |
| 2026-05-07 20:40 | 50.10419 | 14.26567 | 1170 ft | 5 kts | 49° |
| 2026-05-07 20:40 | 50.10437 | 14.26584 | 1172 ft | 3 kts | 34° |
| 2026-05-07 20:40 | 50.10438 | 14.26586 | 1172 ft | 0 kts | 34° |